Rosiclare, Illinois
Current Conditions -  °F | °C
As of 7:15 PM on Saturday 25 Oct 2014 (Local Time) from K5M9 Reporting Station
Clear Clear  
Wind Chill: 69°   Ceiling: Unl
Heat Index: 69°   Visibility: 10mi
Dew Point: 60°   Wind: 5mph
Humidity: 74%   Direction: 260°W
Pressure: 30.02"   Gusts: NA
Location:  37.42°N, 88.35°W
Report Text: K5M9 260015Z AUTO 26004KT 10SM CLR 20/16 A3002 RMK AO2 T02030155
Loading
Personal Weather Stations






























Interactive Weather Map
Tropical Storm Tracking
New forecast layout! Learn more

10-Day Weather Forecast

Advertisements
Track Severe Weather on mobile